createdAt,value
2022-11-15T06:18:14.476Z,79235.50
2022-11-15T06:21:03.017Z,79210.06
2022-11-15T06:23:51.168Z,79225.31
2022-11-15T06:26:38.491Z,79216.78
2022-11-15T06:29:26.189Z,79215.22
2022-11-15T06:32:13.833Z,79221.66
2022-11-15T06:35:02.774Z,79215.69
2022-11-15T06:37:50.210Z,79206.44
2022-11-15T06:40:39.634Z,79204.75
2022-11-15T06:43:27.353Z,79205.75
2022-11-15T06:46:15.042Z,79213.38
2022-11-15T06:49:06.686Z,79204.66
2022-11-15T06:51:57.232Z,79189.94
2022-11-15T06:54:44.797Z,79196.84
2022-11-15T06:57:32.623Z,79195.94
2022-11-15T07:00:22.610Z,79188.72
2022-11-15T07:03:10.701Z,79188.09
2022-11-15T07:06:05.662Z,79194.81
2022-11-15T07:08:54.640Z,79177.38
2022-11-15T07:11:42.589Z,79183.09
2022-11-15T07:14:29.906Z,79177.41
2022-11-15T07:17:17.501Z,79196.22
2022-11-15T07:20:05.784Z,79176.50
2022-11-15T07:22:53.357Z,79164.44
2022-11-15T07:25:42.122Z,79174.28
2022-11-15T07:28:29.747Z,79173.81
2022-11-15T07:31:18.058Z,79173.81
2022-11-15T07:34:06.551Z,79162.66
2022-11-15T07:36:54.226Z,79164.44
2022-11-15T07:39:41.751Z,79168.47
2022-11-15T07:42:47.292Z,79165.34
2022-11-15T07:45:37.870Z,79162.72
2022-11-15T07:48:26.099Z,79175.28
2022-11-15T07:51:20.687Z,79176.78
2022-11-15T07:54:08.265Z,79165.34
2022-11-15T07:56:59.279Z,79160.25
2022-11-15T07:59:50.028Z,79158.75
2022-11-15T08:02:38.447Z,79163.56
2022-11-15T08:05:26.469Z,79146.25
2022-11-15T08:08:14.702Z,79152.38
2022-11-15T08:11:02.949Z,79154.97
2022-11-15T08:13:50.495Z,79140.34
2022-11-15T08:16:38.393Z,79122.59
2022-11-15T08:19:26.108Z,79135.72
2022-11-15T08:22:14.067Z,79135.38
2022-11-15T08:25:02.121Z,79126.41
2022-11-15T08:27:49.894Z,79130.09
2022-11-15T08:30:44.264Z,79137.81
2022-11-15T08:33:33.585Z,79137.56
2022-11-15T08:36:22.430Z,79135.91
2022-11-15T08:39:14.532Z,79134.06
2022-11-15T08:42:02.429Z,79139.28
2022-11-15T08:44:49.574Z,79126.03
2022-11-15T08:47:37.378Z,79124.25
2022-11-15T08:50:25.688Z,79124.06
2022-11-15T08:53:13.447Z,79119.56
2022-11-15T08:56:01.447Z,79115.66
2022-11-15T08:58:49.101Z,79119.97
2022-11-15T09:01:37.023Z,79121.78
2022-11-15T09:04:24.936Z,79123.16
2022-11-15T09:07:15.515Z,79127.78
2022-11-15T09:10:03.042Z,79105.84
2022-11-15T09:12:51.916Z,79113.72
2022-11-15T09:15:39.371Z,79115.22
2022-11-15T09:18:27.831Z,79119.28
2022-11-15T09:21:15.852Z,79094.53
2022-11-15T09:24:04.733Z,79088.28
2022-11-15T09:26:53.934Z,79106.78
2022-11-15T09:29:42.030Z,79098.75
2022-11-15T09:32:38.849Z,79086.28
2022-11-15T09:35:27.221Z,79066.88
2022-11-15T09:38:14.695Z,79081.28
2022-11-15T09:41:21.904Z,79079.00
2022-11-15T09:44:27.353Z,79088.78
2022-11-15T09:47:35.827Z,79088.56
2022-11-15T09:50:55.789Z,79092.91
2022-11-15T09:54:24.083Z,79094.56
2022-11-15T09:56:38.955Z,79074.47
2022-11-15T09:59:08.634Z,79089.91
2022-11-15T10:02:02.935Z,79091.81
2022-11-15T10:04:33.743Z,79070.34
2022-11-15T10:07:17.720Z,79087.53
2022-11-15T10:10:12.836Z,79065.41
2022-11-15T10:12:49.952Z,79076.44
2022-11-15T10:15:24.939Z,79076.72
2022-11-15T10:18:10.245Z,79079.72
2022-11-15T10:20:50.152Z,79061.06
2022-11-15T10:23:24.066Z,79046.50
2022-11-15T10:26:05.313Z,79063.94
2022-11-15T10:28:36.153Z,79054.34
2022-11-15T10:31:06.948Z,79058.81
2022-11-15T10:33:41.405Z,79037.63
2022-11-15T10:36:19.951Z,79059.78
2022-11-15T10:38:52.553Z,79063.22
2022-11-15T10:41:24.872Z,79061.44
2022-11-15T10:44:08.936Z,79053.00
2022-11-15T10:46:46.737Z,79030.69
2022-11-15T10:49:19.033Z,79049.28
2022-11-15T10:51:52.249Z,79039.34
2022-11-15T10:54:37.618Z,79038.19
2022-11-15T10:57:33.217Z,79037.56
2022-11-15T11:00:30.658Z,79015.66
2022-11-15T11:03:06.198Z,79029.78
2022-11-15T11:05:42.789Z,79032.03
2022-11-15T11:08:18.941Z,79035.47
2022-11-15T11:11:03.061Z,79016.25
2022-11-15T11:13:34.433Z,79032.03
2022-11-15T11:16:21.531Z,79036.75
2022-11-15T11:19:19.120Z,79028.97
2022-11-15T11:22:08.726Z,79025.19
2022-11-15T11:25:07.966Z,79032.41
2022-11-15T11:27:58.378Z,79017.94
2022-11-15T11:31:01.382Z,79019.94
2022-11-15T11:33:46.999Z,79010.78
2022-11-15T11:36:53.263Z,79024.13
2022-11-15T11:40:01.525Z,79011.59
2022-11-15T11:43:00.928Z,79018.25
2022-11-15T11:45:41.268Z,79024.28
2022-11-15T11:48:26.178Z,79026.28
2022-11-15T11:51:06.332Z,78992.56
2022-11-15T11:53:49.780Z,79008.50
2022-11-15T11:56:35.907Z,79013.13
2022-11-15T11:59:40.288Z,79011.75
2022-11-15T12:02:44.009Z,78998.44
2022-11-15T12:05:40.937Z,78995.81
2022-11-15T12:08:35.089Z,78998.50
2022-11-15T12:11:12.431Z,79009.16
2022-11-15T12:13:42.664Z,79004.50
2022-11-15T12:16:15.690Z,79007.84
2022-11-15T12:18:51.552Z,79013.13
2022-11-15T12:21:37.677Z,79003.88
2022-11-15T12:24:20.820Z,78973.50
2022-11-15T12:27:26.233Z,78999.91
2022-11-15T12:30:01.295Z,78971.47
2022-11-15T12:32:35.054Z,79001.19
2022-11-15T12:35:07.921Z,78997.22
2022-11-15T12:37:44.901Z,79008.50
2022-11-15T12:40:41.019Z,78989.34
2022-11-15T12:43:43.629Z,79014.47
2022-11-15T12:46:24.900Z,79013.75
2022-11-15T12:49:05.019Z,79025.66
2022-11-15T12:51:49.396Z,79023.66
2022-11-15T12:54:25.687Z,79022.97
2022-11-15T12:57:10.219Z,79022.19
2022-11-15T13:00:04.299Z,79016.91
2022-11-15T13:02:47.311Z,79021.56
2022-11-15T13:05:17.412Z,79016.94
2022-11-15T13:07:49.566Z,79022.78
2022-11-15T13:10:19.461Z,79015.53
2022-11-15T13:13:02.116Z,79013.59
2022-11-15T13:15:43.008Z,79029.53
2022-11-15T13:18:44.712Z,79025.56
2022-11-15T13:21:45.187Z,79028.88
2022-11-15T13:24:18.337Z,79027.63
2022-11-15T13:26:48.425Z,79025.56
2022-11-15T13:29:20.189Z,79048.69
2022-11-15T13:31:51.086Z,79022.25
2022-11-15T13:34:52.388Z,79048.00
2022-11-15T13:37:25.219Z,79045.34
2022-11-15T13:39:54.579Z,79007.09
2022-11-15T13:42:24.340Z,79046.06
2022-11-15T13:45:17.917Z,79031.50
2022-11-15T13:47:49.629Z,79043.41
2022-11-15T13:50:19.361Z,79044.78
2022-11-15T13:52:50.976Z,79030.91
2022-11-15T13:55:26.219Z,79051.41
2022-11-15T13:58:08.361Z,79046.09
2022-11-15T14:00:40.752Z,79048.78
2022-11-15T14:03:18.686Z,79049.41
2022-11-15T14:06:16.651Z,79041.47
2022-11-15T14:09:07.178Z,79050.78
2022-11-15T14:11:38.745Z,79034.25
2022-11-15T14:14:10.552Z,79046.13
2022-11-15T14:16:45.782Z,79044.16
2022-11-15T14:19:36.275Z,79044.81
2022-11-15T14:22:24.264Z,79038.78
2022-11-15T14:25:17.589Z,79042.09
2022-11-15T14:28:16.219Z,79030.28
2022-11-15T14:30:52.297Z,78970.84
2022-11-15T14:33:27.724Z,79042.22
2022-11-15T14:35:59.335Z,79036.97
2022-11-15T14:38:29.928Z,79041.63
2022-11-15T14:41:00.340Z,79046.94
2022-11-15T14:43:32.914Z,79045.59
2022-11-15T14:46:02.687Z,79044.91
2022-11-15T14:48:32.458Z,79055.50
2022-11-15T14:51:02.389Z,79041.63
2022-11-15T14:53:32.882Z,79058.16
2022-11-15T14:56:02.383Z,79043.59
2022-11-15T14:58:32.330Z,79026.41
2022-11-15T15:01:02.360Z,79036.31
2022-11-15T15:03:32.021Z,79028.34
2022-11-15T15:06:01.380Z,79054.09
2022-11-15T15:08:30.805Z,79058.00
2022-11-15T15:11:02.136Z,79032.88
2022-11-15T15:13:32.456Z,79052.72
2022-11-15T15:16:01.714Z,79050.69
2022-11-15T15:18:31.603Z,79039.47
2022-11-15T15:21:05.337Z,79038.16
2022-11-15T15:23:35.107Z,79036.78
2022-11-15T15:26:04.594Z,79030.16
2022-11-15T15:28:35.427Z,79038.09
2022-11-15T15:31:06.055Z,79019.63
2022-11-15T15:33:36.118Z,79049.38
2022-11-15T15:36:06.296Z,79052.72
2022-11-15T15:38:35.744Z,79010.44
2022-11-15T15:41:05.677Z,79023.72
2022-11-15T15:43:35.081Z,79034.94
2022-11-15T15:46:04.568Z,79027.03
2022-11-15T15:48:35.960Z,79021.78
2022-11-15T15:51:12.993Z,79017.81
2022-11-15T15:53:47.876Z,78999.34
2022-11-15T15:56:17.705Z,78979.50
2022-11-15T15:58:47.008Z,78994.06
2022-11-15T16:01:16.645Z,78981.50
2022-11-15T16:03:45.814Z,79003.31
2022-11-15T16:06:41.398Z,79013.22
2022-11-15T16:09:17.124Z,78992.09
2022-11-15T16:11:57.266Z,79009.94
2022-11-15T16:14:26.696Z,78996.06
2022-11-15T16:16:56.159Z,79002.66
2022-11-15T16:19:25.970Z,79002.00
2022-11-15T16:21:55.173Z,78997.34
2022-11-15T16:24:25.731Z,79009.25
2022-11-15T16:26:58.038Z,78994.03
2022-11-15T16:29:27.441Z,78976.88
2022-11-15T16:31:56.882Z,78996.72
2022-11-15T16:34:30.545Z,79003.31
2022-11-15T16:37:02.098Z,79002.66
2022-11-15T16:39:32.160Z,78980.84
2022-11-15T16:42:04.740Z,78999.34
2022-11-15T16:44:36.574Z,78939.84
2022-11-15T16:47:11.220Z,78985.41
2022-11-15T16:49:45.201Z,78970.19
2022-11-15T16:52:21.215Z,78967.56
2022-11-15T16:54:57.438Z,78968.22
2022-11-15T16:57:29.183Z,78978.78
2022-11-15T16:59:59.418Z,78986.69
2022-11-15T17:02:28.821Z,78974.84
2022-11-15T17:04:58.873Z,78949.06
2022-11-15T17:07:29.183Z,78960.28
2022-11-15T17:09:58.439Z,78962.25
2022-11-15T17:12:28.096Z,78976.72
2022-11-15T17:14:57.399Z,78975.34
2022-11-15T17:17:27.512Z,78973.34
2022-11-15T17:19:56.817Z,78960.09
2022-11-15T17:22:27.168Z,78932.97
2022-11-15T17:24:58.129Z,78981.78
2022-11-15T17:27:27.596Z,78972.41
2022-11-15T17:29:56.839Z,78976.38
2022-11-15T17:32:28.999Z,78979.69
2022-11-15T17:34:58.394Z,78963.81
2022-11-15T17:37:27.563Z,78981.06
2022-11-15T17:39:57.505Z,78977.72
2022-11-15T17:42:27.810Z,78931.53
2022-11-15T17:44:57.362Z,78968.44
2022-11-15T17:47:26.663Z,78974.41
2022-11-15T17:49:55.885Z,78972.44
2022-11-15T17:52:26.760Z,78960.53
2022-11-15T17:54:56.657Z,78972.44
2022-11-15T17:57:25.895Z,78932.13
2022-11-15T17:59:57.560Z,78965.16
2022-11-15T18:02:27.407Z,78963.16
2022-11-15T18:05:03.246Z,78945.28
2022-11-15T18:07:32.794Z,78945.91
2022-11-15T18:10:02.151Z,78945.84
2022-11-15T18:12:45.091Z,78938.53
2022-11-15T18:15:15.236Z,78937.16
2022-11-15T18:17:44.430Z,78944.41
2022-11-15T18:20:14.000Z,78930.59
2022-11-15T18:22:43.259Z,78930.63
2022-11-15T18:25:16.817Z,78951.09
2022-11-15T18:27:46.416Z,78935.22
2022-11-15T18:30:16.406Z,78949.06
2022-11-15T18:32:45.727Z,78943.78
2022-11-15T18:35:15.221Z,78912.09
2022-11-15T18:37:44.991Z,78937.16
2022-11-15T18:40:14.331Z,78928.59
2022-11-15T18:42:43.982Z,78902.25
2022-11-15T18:45:13.453Z,78923.41
2022-11-15T18:47:42.816Z,78928.66
2022-11-15T18:50:12.167Z,78920.06
2022-11-15T18:52:41.398Z,78924.75
2022-11-15T18:55:11.466Z,78916.22
2022-11-15T18:57:44.118Z,78872.03
2022-11-15T19:00:14.226Z,78895.09
2022-11-15T19:02:44.000Z,78904.38
2022-11-15T19:05:14.278Z,78909.03
2022-11-15T19:07:52.666Z,78905.06
2022-11-15T19:10:22.118Z,78882.59
2022-11-15T19:12:51.600Z,78902.31
2022-11-15T19:15:21.561Z,78868.66
2022-11-15T19:17:51.023Z,78898.31
2022-11-15T19:20:21.954Z,78877.91
2022-11-15T19:22:51.021Z,78888.41
2022-11-15T19:25:20.149Z,78883.09
2022-11-15T19:27:49.576Z,78887.78
2022-11-15T19:30:19.369Z,78852.16
2022-11-15T19:32:48.562Z,78846.91
2022-11-15T19:35:17.939Z,78853.53
2022-11-15T19:37:47.185Z,78880.56
2022-11-15T19:40:16.807Z,78865.44
2022-11-15T19:42:46.139Z,78865.53
2022-11-15T19:45:15.202Z,78862.25
2022-11-15T19:47:44.401Z,78866.19
2022-11-15T19:50:13.801Z,78867.50
2022-11-15T19:52:43.095Z,78855.59
2022-11-15T19:55:12.598Z,78861.53
2022-11-15T19:57:41.871Z,78855.59
2022-11-15T20:00:11.790Z,78854.91
2022-11-15T20:02:40.999Z,78850.31
2022-11-15T20:05:15.555Z,78839.72
2022-11-15T20:07:50.434Z,78844.97
2022-11-15T20:10:21.018Z,78844.34
2022-11-15T20:12:50.690Z,78823.94
2022-11-15T20:15:19.900Z,78831.84
2022-11-15T20:17:49.289Z,78844.41
2022-11-15T20:20:18.623Z,78819.31
2022-11-15T20:22:48.521Z,78823.22
2022-11-15T20:25:17.889Z,78808.06
2022-11-15T20:27:47.188Z,78854.19
2022-11-15T20:30:16.195Z,78825.13
2022-11-15T20:32:46.211Z,78818.44
2022-11-15T20:35:15.283Z,78841.47
2022-11-15T20:37:45.126Z,78829.53
2022-11-15T20:40:14.692Z,78836.72
2022-11-15T20:42:44.216Z,78846.63
2022-11-15T20:45:13.494Z,78828.13
2022-11-15T20:47:42.992Z,78814.25
2022-11-15T20:50:40.457Z,78824.19
2022-11-15T20:53:01.865Z,78823.56
2022-11-15T20:55:31.015Z,78817.00
2022-11-15T20:58:00.228Z,78833.50
2022-11-15T21:00:29.316Z,78838.13
2022-11-15T21:02:58.600Z,78833.47
2022-11-15T21:05:28.049Z,78814.41
2022-11-15T21:07:57.731Z,78816.97
2022-11-15T21:10:45.166Z,78810.34
2022-11-15T21:13:14.669Z,78811.00
2022-11-15T21:15:44.016Z,78814.31
2022-11-15T21:18:13.806Z,78826.16
2022-11-15T21:20:43.355Z,78822.81
2022-11-15T21:23:13.899Z,78814.25
2022-11-15T21:25:49.331Z,78793.94
2022-11-15T21:28:19.273Z,78814.47
2022-11-15T21:30:57.803Z,78801.94
2022-11-15T21:33:32.031Z,78804.50
2022-11-15T21:36:01.325Z,78807.13
2022-11-15T21:38:30.933Z,78801.88
2022-11-15T21:41:05.403Z,78803.22
2022-11-15T21:43:34.774Z,78792.06
2022-11-15T21:46:07.099Z,78790.06
2022-11-15T21:48:37.200Z,78809.16
2022-11-15T21:51:09.600Z,78793.91
2022-11-15T21:53:38.956Z,78797.72
2022-11-15T21:56:08.434Z,78776.00
2022-11-15T21:58:37.890Z,78803.72
2022-11-15T22:01:26.767Z,78812.97
2022-11-15T22:03:56.964Z,78810.97
2022-11-15T22:06:26.100Z,78803.06
2022-11-15T22:08:55.190Z,78782.56
2022-11-15T22:11:24.214Z,78798.41
2022-11-15T22:13:53.684Z,78796.53
2022-11-15T22:16:22.893Z,78710.25
2022-11-15T22:18:52.997Z,78768.88
2022-11-15T22:21:23.448Z,78789.97
2022-11-15T22:23:52.811Z,78789.34
2022-11-15T22:26:23.999Z,78784.81
2022-11-15T22:28:54.083Z,78780.25
2022-11-15T22:31:23.247Z,78777.00
2022-11-15T22:33:52.719Z,78778.38
2022-11-15T22:36:22.175Z,78780.34
2022-11-15T22:38:51.453Z,78782.34
2022-11-15T22:41:20.750Z,78773.13
2022-11-15T22:43:50.137Z,78757.38
2022-11-15T22:46:19.464Z,78768.56
2022-11-15T22:48:48.749Z,78769.19
2022-11-15T22:51:18.346Z,78760.63
2022-11-15T22:53:48.023Z,78748.75
2022-11-15T22:56:20.228Z,78767.19
2022-11-15T22:58:49.984Z,78761.84
2022-11-15T23:01:23.514Z,78757.88
2022-11-15T23:03:54.216Z,78763.13
2022-11-15T23:06:23.362Z,78747.34
2022-11-15T23:08:52.979Z,78760.59
2022-11-15T23:11:40.854Z,78746.84
2022-11-15T23:14:10.265Z,78758.06
2022-11-15T23:16:43.924Z,78737.00
2022-11-15T23:19:14.466Z,78753.53
2022-11-15T23:22:03.983Z,78771.34
2022-11-15T23:24:35.114Z,78770.06
2022-11-15T23:27:11.124Z,78776.66
2022-11-15T23:29:59.399Z,78758.16
2022-11-15T23:32:46.635Z,78758.13
2022-11-15T23:35:16.209Z,78770.03
2022-11-15T23:37:45.383Z,78757.50
